Time;durP1;ratioP1;P1;durP2;ratioP2;P2;SDS_P1;SDS_P2;PMS_P1;PMS_P2;Temp;Humidity;BMP_temperature;BMP_pressure;BME280_temperature;BME280_humidity;BME280_pressure;Samples;Min_cycle;Max_cycle;Signal;HPM_P1;HPM_P2
2024/04/12 00:00:33;;;;;;;0.57;0.57;;;12.10;78.20;;;;;;11171009;26;20269;-77
2024/04/12 00:05:37;;;;;;;0.40;0.40;;;12.00;77.80;;;;;;11170419;26;20243;-77
2024/04/12 00:10:41;;;;;;;0.60;0.60;;;11.90;78.00;;;;;;11174724;26;20270;-77
2024/04/12 00:15:47;;;;;;;0.50;0.50;;;11.90;78.00;;;;;;11216465;26;20243;-77
2024/04/12 00:20:51;;;;;;;0.50;0.50;;;11.90;78.20;;;;;;11200774;26;20243;-77
2024/04/12 00:25:59;;;;;;;0.50;0.50;;;11.90;78.20;;;;;;11200239;26;20712;-76
2024/04/12 00:31:06;;;;;;;0.50;0.50;;;11.90;78.40;;;;;;11200512;26;20331;-77
2024/04/12 00:36:12;;;;;;;0.50;0.50;;;11.80;78.30;;;;;;11199325;26;20679;-76
2024/04/12 00:41:18;;;;;;;0.50;0.50;;;11.80;78.80;;;;;;11200518;26;20230;-77
2024/04/12 00:46:28;;;;;;;0.50;0.50;;;11.80;78.60;;;;;;11196231;26;20251;-77
2024/04/12 00:51:33;;;;;;;0.50;0.50;;;11.70;78.60;;;;;;11206604;26;20238;-77
2024/04/12 00:56:38;;;;;;;0.50;0.50;;;11.70;78.90;;;;;;11205476;26;20235;-76
2024/04/12 01:01:46;;;;;;;0.50;0.50;;;11.70;79.10;;;;;;11125839;26;20232;-77
2024/04/12 01:06:50;;;;;;;0.60;0.60;;;11.60;79.20;;;;;;11147182;26;20607;-76
2024/04/12 01:11:56;;;;;;;0.50;0.50;;;11.60;79.20;;;;;;11206682;26;20238;-76
2024/04/12 01:17:03;;;;;;;0.50;0.50;;;11.60;79.30;;;;;;11131148;26;20278;-76
2024/04/12 01:22:07;;;;;;;0.50;0.50;;;11.50;79.30;;;;;;11184094;26;20261;-75
2024/04/12 01:27:14;;;;;;;0.50;0.50;;;11.50;79.60;;;;;;11130613;26;20236;-76
2024/04/12 01:32:18;;;;;;;0.70;0.70;;;11.40;79.60;;;;;;11194017;26;20231;-77
2024/04/12 01:37:22;;;;;;;0.60;0.60;;;11.40;80.10;;;;;;11205132;26;20243;-76
2024/04/12 01:42:30;;;;;;;0.50;0.50;;;11.40;80.20;;;;;;11205209;26;20230;-77
2024/04/12 01:47:34;;;;;;;0.50;0.50;;;11.30;80.40;;;;;;11200591;26;20301;-76
2024/04/12 01:52:50;;;;;;;0.80;0.80;;;11.30;80.70;;;;;;11196896;26;20728;-76
2024/04/12 01:58:00;;;;;;;0.70;0.70;;;11.20;80.90;;;;;;11184895;26;20238;-77
2024/04/12 02:03:05;;;;;;;0.80;0.80;;;11.20;81.20;;;;;;11204869;26;20751;-77
2024/04/12 02:08:16;;;;;;;0.70;0.70;;;11.10;81.40;;;;;;11204338;26;20234;-77
2024/04/12 02:13:23;;;;;;;0.73;0.73;;;11.10;81.40;;;;;;11203454;26;20265;-77
2024/04/12 02:18:32;;;;;;;0.70;0.70;;;11.00;81.30;;;;;;11204552;26;20231;-77
2024/04/12 02:23:37;;;;;;;0.90;0.90;;;11.00;81.80;;;;;;11205119;26;20239;-76
2024/04/12 02:28:47;;;;;;;0.73;0.73;;;11.00;81.90;;;;;;11203937;26;20323;-76
2024/04/12 02:33:54;;;;;;;0.70;0.70;;;11.00;81.90;;;;;;11203141;26;20583;-76
2024/04/12 02:38:58;;;;;;;0.90;0.90;;;10.90;81.70;;;;;;11128818;26;20275;-76
2024/04/12 02:44:06;;;;;;;0.93;0.93;;;10.90;81.80;;;;;;11195396;26;20246;-77
2024/04/12 02:49:12;;;;;;;0.60;0.60;;;10.90;81.80;;;;;;11205702;26;20231;-77
2024/04/12 02:54:17;;;;;;;0.70;0.70;;;10.90;82.20;;;;;;11196171;26;20239;-76
2024/04/12 02:59:27;;;;;;;0.80;0.80;;;10.80;82.10;;;;;;11202620;26;20242;-77
2024/04/12 03:04:31;;;;;;;0.90;0.90;;;10.80;82.70;;;;;;11203201;26;20666;-76
2024/04/12 03:09:40;;;;;;;0.80;0.80;;;10.70;82.60;;;;;;11201502;26;20238;-76
2024/04/12 03:14:47;;;;;;;0.90;0.90;;;10.70;82.60;;;;;;11192195;26;20277;-77
2024/04/12 03:19:53;;;;;;;0.80;0.80;;;10.70;82.90;;;;;;11203307;26;20239;-77
2024/04/12 03:24:57;;;;;;;1.20;1.20;;;10.70;82.80;;;;;;11202652;26;20235;-76
2024/04/12 03:30:04;;;;;;;1.30;1.30;;;10.70;82.80;;;;;;11152545;26;20239;-77
2024/04/12 03:35:08;;;;;;;0.87;0.87;;;10.60;83.10;;;;;;11191626;26;20257;-76
2024/04/12 03:40:17;;;;;;;1.07;1.07;;;10.60;83.40;;;;;;11201032;26;20231;-76
2024/04/12 03:45:24;;;;;;;0.80;0.80;;;10.60;83.70;;;;;;11202246;26;20736;-76
2024/04/12 03:50:30;;;;;;;0.90;0.90;;;10.60;83.60;;;;;;11136904;26;20266;-76
2024/04/12 03:55:34;;;;;;;1.10;1.10;;;10.60;83.20;;;;;;11200985;26;20239;-77
2024/04/12 04:00:42;;;;;;;1.10;1.10;;;10.50;83.30;;;;;;11189540;26;20771;-76
2024/04/12 04:05:46;;;;;;;1.20;1.20;;;10.50;83.50;;;;;;11195821;26;20235;-77
2024/04/12 04:10:54;;;;;;;1.00;1.00;;;10.50;83.70;;;;;;11168927;26;20748;-77
2024/04/12 04:16:00;;;;;;;1.07;1.07;;;10.40;84.00;;;;;;11200024;26;20335;-77
2024/04/12 04:21:07;;;;;;;0.80;0.80;;;10.40;84.00;;;;;;11206155;26;20617;-76
2024/04/12 04:26:11;;;;;;;1.07;1.07;;;10.40;84.20;;;;;;11207535;26;20666;-76
2024/04/12 04:31:21;;;;;;;1.00;1.00;;;10.30;84.00;;;;;;11207729;26;20239;-76
2024/04/12 04:36:25;;;;;;;1.30;1.30;;;10.30;84.20;;;;;;11207817;26;20235;-77
2024/04/12 04:41:30;;;;;;;1.20;1.20;;;10.30;84.10;;;;;;11206166;26;20247;-77
2024/04/12 04:46:37;;;;;;;1.10;1.10;;;10.20;84.20;;;;;;11202791;26;20305;-77
2024/04/12 04:51:41;;;;;;;1.00;1.00;;;10.20;84.50;;;;;;11207199;26;20239;-76
2024/04/12 04:56:46;;;;;;;0.80;0.80;;;10.20;84.70;;;;;;11195450;26;20629;-75
2024/04/12 05:01:53;;;;;;;0.67;0.67;;;10.30;84.70;;;;;;11141840;26;20293;-75
2024/04/12 05:06:58;;;;;;;1.10;1.10;;;10.20;85.20;;;;;;11205559;26;20342;-76
2024/04/12 05:12:04;;;;;;;0.80;0.80;;;10.30;85.00;;;;;;11198504;26;20965;-75
2024/04/12 05:17:15;;;;;;;0.97;0.97;;;10.40;84.90;;;;;;11206201;26;20724;-76
2024/04/12 05:22:19;;;;;;;0.80;0.80;;;10.30;85.10;;;;;;11206080;26;20331;-76
2024/04/12 05:27:23;;;;;;;0.90;0.90;;;10.40;85.50;;;;;;11206304;26;20813;-76
2024/04/12 05:32:32;;;;;;;0.80;0.80;;;10.40;85.30;;;;;;11794434;21;20270;-76
2024/04/12 05:37:43;;;;;;;0.90;0.90;;;10.40;85.20;;;;;;11227633;26;20642;-77
2024/04/12 05:42:47;;;;;;;1.00;1.00;;;10.50;85.40;;;;;;11189501;26;20231;-77
2024/04/12 05:47:59;;;;;;;1.03;1.03;;;10.50;86.00;;;;;;11117300;26;20248;-77
2024/04/12 05:53:03;;;;;;;1.00;1.00;;;10.70;85.70;;;;;;11186352;26;20243;-77
2024/04/12 05:58:09;;;;;;;0.50;0.50;;;10.80;85.60;;;;;;11225027;26;20231;-76
2024/04/12 06:03:17;;;;;;;0.50;0.50;;;10.90;86.00;;;;;;11161760;26;20234;-76
2024/04/12 06:08:22;;;;;;;0.83;0.83;;;11.10;85.60;;;;;;11111426;26;20673;-77
2024/04/12 06:13:26;;;;;;;1.00;1.00;;;11.20;85.70;;;;;;11127668;26;20232;-77
2024/04/12 06:18:33;;;;;;;0.53;0.53;;;11.40;85.40;;;;;;11284570;26;20218;-77
2024/04/12 06:23:37;;;;;;;0.83;0.83;;;11.40;84.80;;;;;;11169301;26;20227;-77
2024/04/12 06:28:44;;;;;;;1.20;1.20;;;11.50;84.70;;;;;;11116379;26;20224;-78
2024/04/12 06:33:51;;;;;;;0.80;0.80;;;11.50;84.60;;;;;;11169959;26;20239;-77
2024/04/12 06:38:55;;;;;;;0.90;0.90;;;11.60;84.40;;;;;;11115878;26;20290;-77
2024/04/12 06:43:59;;;;;;;1.20;1.20;;;11.60;84.20;;;;;;11129979;26;20228;-77
2024/04/12 06:49:15;;;;;;;1.10;1.10;;;11.70;84.40;;;;;;11188687;26;20227;-77
2024/04/12 06:54:23;;;;;;;0.80;0.80;;;11.80;84.60;;;;;;11177441;26;20243;-78
2024/04/12 06:59:35;;;;;;;0.90;0.90;;;11.80;84.50;;;;;;11185114;26;20307;-78
2024/04/12 07:04:41;;;;;;;1.40;1.40;;;11.90;84.30;;;;;;11175033;26;20256;-77
2024/04/12 07:09:45;;;;;;;1.20;1.20;;;12.00;84.00;;;;;;11120630;26;20326;-78
2024/04/12 07:14:49;;;;;;;1.00;1.00;;;12.00;83.90;;;;;;11183369;26;20255;-78
2024/04/12 07:19:59;;;;;;;1.00;1.00;;;12.10;84.30;;;;;;11120193;26;20810;-78
2024/04/12 07:25:07;;;;;;;0.80;0.80;;;12.20;84.40;;;;;;11136175;26;20333;-77
2024/04/12 07:30:14;;;;;;;1.00;1.00;;;12.30;84.60;;;;;;11180183;26;20240;-78
2024/04/12 07:35:28;;;;;;;0.70;0.70;;;12.40;85.30;;;;;;11179372;26;20328;-77
2024/04/12 07:40:34;;;;;;;0.80;0.80;;;12.60;86.10;;;;;;11117582;26;20244;-77
2024/04/12 07:45:40;;;;;;;0.70;0.70;;;12.70;86.70;;;;;;11123881;26;20236;-77
2024/04/12 07:50:47;;;;;;;0.60;0.60;;;12.80;86.30;;;;;;11115332;26;20694;-78
2024/04/12 07:55:58;;;;;;;0.70;0.70;;;13.10;84.50;;;;;;11161839;26;20269;-77
2024/04/12 08:01:15;;;;;;;0.60;0.60;;;13.30;83.70;;;;;;11192266;26;20243;-78
2024/04/12 08:06:36;;;;;;;0.30;0.30;;;13.50;84.30;;;;;;11175494;26;20278;-77
2024/04/12 08:11:41;;;;;;;0.60;0.60;;;13.70;84.00;;;;;;11121072;26;20271;-77
2024/04/12 08:16:46;;;;;;;0.90;0.90;;;13.90;83.80;;;;;;11136823;26;20235;-77
2024/04/12 08:21:55;;;;;;;0.67;0.67;;;14.10;83.60;;;;;;11191352;26;20646;-77
2024/04/12 08:27:02;;;;;;;0.70;0.70;;;14.30;83.40;;;;;;11197582;26;20807;-78
2024/04/12 08:32:11;;;;;;;0.60;0.60;;;14.50;82.50;;;;;;11173083;26;20306;-78
2024/04/12 08:37:19;;;;;;;0.80;0.80;;;14.70;82.70;;;;;;11149586;26;20247;-78
2024/04/12 08:42:28;;;;;;;0.80;0.80;;;14.80;83.30;;;;;;11183879;26;20231;-78
2024/04/12 08:47:36;;;;;;;0.77;0.77;;;14.90;83.00;;;;;;11190865;26;20243;-78
2024/04/12 08:52:47;;;;;;;0.60;0.60;;;15.10;83.40;;;;;;11173818;26;20235;-77
2024/04/12 08:57:56;;;;;;;0.80;0.80;;;15.20;83.60;;;;;;11242201;21;20299;-79
2024/04/12 09:03:02;;;;;;;0.63;0.63;;;15.30;83.20;;;;;;11289357;26;20265;-79
2024/04/12 09:08:09;;;;;;;0.80;0.80;;;15.50;83.10;;;;;;11249710;26;20719;-79
2024/04/12 09:13:14;;;;;;;0.67;0.67;;;15.60;82.20;;;;;;11224992;26;20234;-79
2024/04/12 09:18:25;;;;;;;0.60;0.60;;;15.80;82.70;;;;;;11256559;26;20234;-80
2024/04/12 09:23:36;;;;;;;0.60;0.60;;;15.90;82.70;;;;;;11258305;26;20659;-80
2024/04/12 09:28:40;;;;;;;0.80;0.80;;;16.10;81.90;;;;;;11268472;26;20233;-78
2024/04/12 09:33:50;;;;;;;0.70;0.70;;;16.30;82.50;;;;;;11233454;26;20716;-80
2024/04/12 09:38:59;;;;;;;0.80;0.80;;;16.50;81.60;;;;;;11230141;26;20349;-78
2024/04/12 09:44:04;;;;;;;0.80;0.80;;;16.90;80.60;;;;;;11240890;26;20230;-79
2024/04/12 10:37:36;;;;;;;0.90;0.90;;;18.40;74.30;;;;;;11261377;26;20384;-76
2024/04/12 10:42:46;;;;;;;0.60;0.60;;;18.30;73.60;;;;;;11216389;26;20238;-80
2024/04/12 10:47:50;;;;;;;0.87;0.87;;;18.20;75.30;;;;;;11190613;26;20316;-80
2024/04/12 10:52:57;;;;;;;0.90;0.90;;;18.20;75.00;;;;;;11227327;26;20231;-80
2024/04/12 10:58:08;;;;;;;0.93;0.93;;;18.30;75.50;;;;;;11268762;26;20242;-77
2024/04/12 11:03:17;;;;;;;0.77;0.77;;;18.30;75.20;;;;;;11228542;26;20269;-81
2024/04/12 11:08:23;;;;;;;1.00;1.00;;;18.50;75.20;;;;;;11183277;26;20243;-78
2024/04/12 11:13:35;;;;;;;0.90;0.90;;;18.70;74.20;;;;;;11218564;26;20239;-78
2024/04/12 11:34:45;;;;;;;0.60;0.60;;;19.10;74.40;;;;;;11244492;26;20243;-79
2024/04/12 11:39:49;;;;;;;0.30;0.30;;;19.10;71.30;;;;;;11206921;26;20299;-82
2024/04/12 11:44:55;;;;;;;0.50;0.50;;;19.00;73.00;;;;;;11221530;26;20238;-80
2024/04/12 11:50:10;;;;;;;0.60;0.60;;;18.90;72.50;;;;;;11262377;26;20238;-81
2024/04/12 11:55:16;;;;;;;0.80;0.80;;;18.80;72.40;;;;;;11241269;26;20234;-81
2024/04/12 12:00:22;;;;;;;0.70;0.70;;;18.70;71.30;;;;;;11253168;26;20728;-81
2024/04/12 12:05:28;;;;;;;0.60;0.60;;;18.70;73.30;;;;;;11249984;26;20239;-81
2024/04/12 12:10:34;;;;;;;0.70;0.70;;;18.60;71.80;;;;;;11215101;26;20338;-81
2024/04/12 12:15:42;;;;;;;0.50;0.50;;;18.60;72.50;;;;;;11215689;26;20234;-80
2024/04/12 12:20:46;;;;;;;0.80;0.80;;;18.40;74.50;;;;;;11252711;26;20319;-81
2024/04/12 12:25:51;;;;;;;0.60;0.60;;;18.30;74.10;;;;;;11244097;26;20242;-78
2024/04/12 12:30:58;;;;;;;0.70;0.70;;;18.20;75.40;;;;;;11254439;26;20571;-80
2024/04/12 12:36:05;;;;;;;0.50;0.50;;;18.20;74.40;;;;;;11249926;26;20231;-80
2024/04/12 12:41:09;;;;;;;0.63;0.63;;;18.20;73.70;;;;;;11213418;26;20791;-80
2024/04/12 12:46:16;;;;;;;0.70;0.70;;;18.20;73.80;;;;;;11222167;26;20238;-80
2024/04/12 12:51:26;;;;;;;0.67;0.67;;;18.30;73.30;;;;;;11265949;26;20238;-81
2024/04/12 12:56:31;;;;;;;0.73;0.73;;;18.30;74.00;;;;;;11278960;26;20714;-80
2024/04/12 13:01:41;;;;;;;0.40;0.40;;;18.30;74.90;;;;;;11267153;26;20242;-81
2024/04/12 13:06:46;;;;;;;0.40;0.40;;;18.30;74.50;;;;;;11256640;26;20239;-79
2024/04/12 13:11:50;;;;;;;0.40;0.40;;;18.20;75.10;;;;;;11213254;26;20274;-82
2024/04/12 13:16:57;;;;;;;0.40;0.40;;;18.20;74.00;;;;;;11222266;26;20649;-81
2024/04/12 13:22:01;;;;;;;0.40;0.40;;;18.30;74.10;;;;;;11264212;26;20269;-79
2024/04/12 13:27:07;;;;;;;0.47;0.47;;;18.30;72.80;;;;;;11273720;26;20648;-82
2024/04/12 13:32:13;;;;;;;0.50;0.50;;;18.50;73.80;;;;;;11271053;26;20238;-80
2024/04/12 13:37:21;;;;;;;0.60;0.60;;;18.70;73.30;;;;;;11252716;26;20239;-81
2024/04/12 13:42:25;;;;;;;0.63;0.63;;;18.80;72.00;;;;;;11202847;26;20308;-80
2024/04/12 13:53:09;;;;;;;0.50;0.50;;;19.10;70.70;;;;;;11129326;26;20717;-80
2024/04/12 13:58:13;;;;;;;0.50;0.50;;;19.30;71.20;;;;;;11258503;26;20242;-81
2024/04/12 14:03:23;;;;;;;0.50;0.50;;;19.30;71.40;;;;;;11270258;26;20260;-81
2024/04/12 14:08:28;;;;;;;0.70;0.70;;;19.30;70.00;;;;;;11241553;26;20323;-81
2024/04/12 14:13:32;;;;;;;0.50;0.50;;;19.30;69.30;;;;;;11208156;26;20675;-79
2024/04/12 14:18:40;;;;;;;0.70;0.70;;;19.30;70.00;;;;;;11235900;26;20242;-80
2024/04/12 14:23:45;;;;;;;0.60;0.60;;;19.30;70.50;;;;;;11267216;26;20238;-81
2024/04/12 14:28:49;;;;;;;0.63;0.63;;;19.20;71.40;;;;;;11274627;26;20246;-80
2024/04/12 14:33:56;;;;;;;0.60;0.60;;;19.30;69.50;;;;;;11266659;26;20230;-80
2024/04/12 14:39:08;;;;;;;0.70;0.70;;;19.30;69.60;;;;;;11241398;26;20265;-79
2024/04/12 14:44:12;;;;;;;0.70;0.70;;;19.30;69.30;;;;;;11214675;26;20243;-81
2024/04/12 14:49:19;;;;;;;0.50;0.50;;;19.40;69.90;;;;;;11237719;26;20310;-80
2024/04/12 14:54:23;;;;;;;0.50;0.50;;;19.30;69.80;;;;;;11257285;26;20242;-82
2024/04/12 14:59:31;;;;;;;0.40;0.40;;;19.40;70.00;;;;;;11315737;21;20268;-78
2024/04/12 15:52:29;;;;;;;0.90;0.90;;;19.10;70.00;;;;;;11357124;26;20654;-77
2024/04/12 16:13:35;;;;;;;0.60;0.60;;;19.10;69.90;;;;;;11323450;26;20628;-78
2024/04/12 16:18:39;;;;;;;0.60;0.60;;;19.00;69.80;;;;;;11355077;26;20714;-77
2024/04/12 16:23:48;;;;;;;0.70;0.70;;;19.00;70.00;;;;;;11321786;26;20337;-77
2024/04/12 16:28:52;;;;;;;0.70;0.70;;;18.90;69.70;;;;;;11359677;26;20275;-78
2024/04/12 16:33:56;;;;;;;0.60;0.60;;;18.90;68.90;;;;;;11357669;26;20236;-77
2024/04/12 16:39:03;;;;;;;0.60;0.60;;;18.90;70.40;;;;;;11325366;26;20236;-78
2024/04/12 16:44:07;;;;;;;0.70;0.70;;;18.80;69.70;;;;;;11357345;26;20237;-78
2024/04/12 16:49:11;;;;;;;0.90;0.90;;;18.80;69.70;;;;;;11356718;26;20240;-78
2024/04/12 16:54:18;;;;;;;0.63;0.63;;;18.70;70.50;;;;;;11356696;26;20673;-77
2024/04/12 16:59:22;;;;;;;0.70;0.70;;;18.60;72.80;;;;;;11356190;26;20488;-77
2024/04/12 17:04:26;;;;;;;0.80;0.80;;;18.50;72.80;;;;;;11356809;26;20599;-78
2024/04/12 17:09:33;;;;;;;0.70;0.70;;;18.40;75.10;;;;;;11324039;26;20232;-77
2024/04/12 17:14:37;;;;;;;0.90;0.90;;;18.30;73.80;;;;;;11355706;26;20233;-77
2024/04/12 17:19:41;;;;;;;1.10;1.10;;;18.20;70.90;;;;;;11356089;26;20714;-77
2024/04/12 17:24:51;;;;;;;0.93;0.93;;;18.30;70.00;;;;;;11354919;26;20237;-77
2024/04/12 17:29:56;;;;;;;0.90;0.90;;;18.20;72.50;;;;;;11352251;26;20240;-78
2024/04/12 17:35:00;;;;;;;0.80;0.80;;;18.10;73.90;;;;;;11318966;26;20221;-78
2024/04/12 17:40:11;;;;;;;0.80;0.80;;;18.00;74.40;;;;;;11282085;26;20730;-77
2024/04/12 17:45:18;;;;;;;0.93;0.93;;;17.90;76.00;;;;;;11332299;26;20242;-77
2024/04/12 17:50:23;;;;;;;1.00;1.00;;;17.80;78.30;;;;;;11286032;26;20573;-78
2024/04/12 17:55:30;;;;;;;1.10;1.10;;;17.70;75.60;;;;;;11333875;26;20333;-77
2024/04/12 18:00:36;;;;;;;0.90;0.90;;;17.80;75.10;;;;;;11322518;26;20233;-77
2024/04/12 18:05:40;;;;;;;0.80;0.80;;;17.80;75.50;;;;;;11315653;26;20334;-76
2024/04/12 18:10:48;;;;;;;0.70;0.70;;;17.80;75.10;;;;;;11286831;26;20241;-77
2024/04/12 18:15:52;;;;;;;0.90;0.90;;;17.80;75.30;;;;;;11295975;26;20326;-77
2024/04/12 18:20:57;;;;;;;0.90;0.90;;;17.80;75.50;;;;;;11317421;26;20641;-78
2024/04/12 18:26:04;;;;;;;0.90;0.90;;;17.70;75.50;;;;;;11350008;26;20237;-77
2024/04/12 18:31:09;;;;;;;0.80;0.80;;;17.60;75.70;;;;;;11324517;26;20236;-76
2024/04/12 18:36:20;;;;;;;0.80;0.80;;;17.50;76.10;;;;;;11354416;26;20263;-78
2024/04/12 18:46:47;;;;;;;0.63;0.63;;;17.30;76.10;;;;;;11358647;26;20404;-77
2024/04/12 18:51:52;;;;;;;0.90;0.90;;;17.10;76.00;;;;;;11320752;26;20229;-79
2024/04/12 18:57:00;;;;;;;1.10;1.10;;;17.00;76.50;;;;;;11353204;26;20237;-77
2024/04/12 19:02:04;;;;;;;0.80;0.80;;;16.90;76.70;;;;;;11352861;26;20240;-77
2024/04/12 19:07:08;;;;;;;0.90;0.90;;;16.80;77.80;;;;;;11358153;26;20228;-77
2024/04/12 19:12:16;;;;;;;1.00;1.00;;;16.70;77.10;;;;;;11323564;26;20349;-77
2024/04/12 19:17:20;;;;;;;0.70;0.70;;;16.60;77.30;;;;;;11351733;26;20232;-77
2024/04/12 19:22:24;;;;;;;1.00;1.00;;;16.60;77.40;;;;;;11352797;26;20245;-77
2024/04/12 19:27:33;;;;;;;1.00;1.00;;;16.50;77.40;;;;;;11351410;26;20305;-77
2024/04/12 19:32:37;;;;;;;1.07;1.07;;;16.40;77.20;;;;;;11352178;26;20241;-77
2024/04/12 19:37:41;;;;;;;0.70;0.70;;;16.30;77.20;;;;;;11351877;26;20236;-78
2024/04/12 19:42:48;;;;;;;0.70;0.70;;;16.30;77.30;;;;;;11351643;26;20280;-77
2024/04/12 19:47:54;;;;;;;0.97;0.97;;;16.20;77.50;;;;;;11352015;26;20229;-77
2024/04/12 19:52:58;;;;;;;0.80;0.80;;;16.10;77.80;;;;;;11326917;26;20331;-77
2024/04/12 19:58:06;;;;;;;0.83;0.83;;;16.00;78.00;;;;;;11358175;26;20653;-78
2024/04/12 20:03:10;;;;;;;0.77;0.77;;;16.00;78.40;;;;;;11358932;26;20263;-78
2024/04/12 20:08:14;;;;;;;0.63;0.63;;;15.90;78.40;;;;;;11358236;26;20328;-77
2024/04/12 20:13:20;;;;;;;0.70;0.70;;;15.90;78.40;;;;;;11358670;26;20236;-78
2024/04/12 20:18:26;;;;;;;0.70;0.70;;;15.80;78.10;;;;;;11365456;26;20267;-78
2024/04/12 20:23:32;;;;;;;0.90;0.90;;;15.70;78.40;;;;;;11364801;26;20229;-78
2024/04/12 20:28:39;;;;;;;0.87;0.87;;;15.70;78.30;;;;;;11361774;26;20228;-79
2024/04/12 20:34:23;;;;;;;0.70;0.70;;;15.60;78.30;;;;;;11360869;26;20232;-77
2024/04/12 20:39:27;;;;;;;0.70;0.70;;;15.60;78.10;;;;;;11356861;26;20248;-77
2024/04/12 20:44:34;;;;;;;0.70;0.70;;;15.50;78.30;;;;;;11325168;26;20263;-77
2024/04/12 20:49:38;;;;;;;0.70;0.70;;;15.50;78.40;;;;;;11356788;26;20233;-77
2024/04/12 20:54:42;;;;;;;0.70;0.70;;;15.50;78.50;;;;;;11356980;26;20726;-76
2024/04/12 20:59:51;;;;;;;0.80;0.80;;;15.40;79.00;;;;;;11355456;26;20241;-77
2024/04/12 21:04:55;;;;;;;0.60;0.60;;;15.40;79.70;;;;;;11356206;26;20236;-77
2024/04/12 21:10:01;;;;;;;0.70;0.70;;;15.30;80.30;;;;;;11356192;26;20237;-77
2024/04/12 21:15:08;;;;;;;0.60;0.60;;;15.20;80.70;;;;;;11356489;26;20336;-77
2024/04/12 21:20:15;;;;;;;0.60;0.60;;;15.20;80.60;;;;;;11355932;26;20271;-79
2024/04/12 21:25:19;;;;;;;0.63;0.63;;;15.20;80.50;;;;;;11355244;26;20236;-78
2024/04/12 21:30:26;;;;;;;0.50;0.50;;;15.20;80.80;;;;;;11354740;26;20326;-78
2024/04/12 21:35:30;;;;;;;0.40;0.40;;;15.20;80.70;;;;;;11294949;26;20238;-79
2024/04/12 21:40:35;;;;;;;0.60;0.60;;;15.10;80.70;;;;;;11304938;26;20652;-78
2024/04/12 21:45:42;;;;;;;0.50;0.50;;;15.10;80.90;;;;;;11311158;26;20565;-77
2024/04/12 21:50:46;;;;;;;0.50;0.50;;;15.00;81.10;;;;;;11307891;26;20273;-77
2024/04/12 21:55:50;;;;;;;0.50;0.50;;;15.00;81.20;;;;;;11340944;26;20237;-79
2024/04/12 22:00:58;;;;;;;0.50;0.50;;;14.90;81.20;;;;;;11354157;26;20244;-78
2024/04/12 22:06:04;;;;;;;0.40;0.40;;;14.90;81.50;;;;;;11293251;26;20300;-77
2024/04/12 22:11:08;;;;;;;0.50;0.50;;;14.80;82.00;;;;;;11308072;26;20321;-77
2024/04/12 22:16:16;;;;;;;0.40;0.40;;;14.70;82.10;;;;;;11311504;26;20236;-77
2024/04/12 22:21:20;;;;;;;0.50;0.50;;;14.70;82.50;;;;;;11288601;26;20634;-77
2024/04/12 22:26:25;;;;;;;0.50;0.50;;;14.60;82.60;;;;;;11346627;26;20263;-77
2024/04/12 22:31:31;;;;;;;0.60;0.60;;;14.60;83.00;;;;;;11353962;26;20229;-77
2024/04/12 22:36:35;;;;;;;0.50;0.50;;;14.60;83.30;;;;;;11353825;26;20294;-77
2024/04/12 22:41:39;;;;;;;0.60;0.60;;;14.50;83.60;;;;;;11353664;26;20229;-77
2024/04/12 22:46:47;;;;;;;0.50;0.50;;;14.50;83.90;;;;;;11353120;26;20229;-77
2024/04/12 22:51:51;;;;;;;0.50;0.50;;;14.40;84.10;;;;;;11353289;26;20341;-77
2024/04/12 22:56:55;;;;;;;0.50;0.50;;;14.40;84.30;;;;;;11352845;26;20237;-77
2024/04/12 23:02:02;;;;;;;0.60;0.60;;;14.40;84.60;;;;;;11348969;26;20271;-77
2024/04/12 23:07:08;;;;;;;0.60;0.60;;;14.30;84.70;;;;;;11352640;26;20792;-77
2024/04/12 23:12:14;;;;;;;0.60;0.60;;;14.30;84.90;;;;;;11352526;26;20733;-77
2024/04/12 23:17:20;;;;;;;0.50;0.50;;;14.30;85.10;;;;;;11351970;26;20329;-77
2024/04/12 23:22:24;;;;;;;0.50;0.50;;;14.20;84.90;;;;;;11351612;26;20267;-77
2024/04/12 23:27:28;;;;;;;0.70;0.70;;;14.20;85.10;;;;;;11350428;26;20264;-77
2024/04/12 23:32:35;;;;;;;0.50;0.50;;;14.10;85.50;;;;;;11351662;26;20240;-77
2024/04/12 23:37:39;;;;;;;0.70;0.70;;;14.10;85.70;;;;;;11351795;26;20552;-77
2024/04/12 23:42:43;;;;;;;0.70;0.70;;;14.00;85.80;;;;;;11351512;26;20339;-77
2024/04/12 23:47:50;;;;;;;0.60;0.60;;;14.00;86.80;;;;;;11352002;26;20637;-77
2024/04/12 23:52:54;;;;;;;0.50;0.50;;;13.90;86.10;;;;;;11304394;26;20761;-77
2024/04/12 23:57:58;;;;;;;0.50;0.50;;;13.90;86.40;;;;;;11350958;26;20263;-77
